createdAt,value
2023-04-17T00:02:00.685Z,45.75
2023-04-17T00:04:27.743Z,51.00
2023-04-17T00:06:55.091Z,48.25
2023-04-17T00:09:22.494Z,49.25
2023-04-17T00:11:49.794Z,47.25
2023-04-17T00:14:16.857Z,51.25
2023-04-17T00:16:44.355Z,49.25
2023-04-17T00:19:13.143Z,46.00
2023-04-17T00:21:42.784Z,45.25
2023-04-17T00:24:09.868Z,47.50
2023-04-17T00:26:37.137Z,47.00
2023-04-17T00:29:04.281Z,35.00
2023-04-17T00:31:31.633Z,51.00
2023-04-17T00:33:59.078Z,47.75
2023-04-17T00:36:27.377Z,48.75
2023-04-17T00:38:54.463Z,49.00
2023-04-17T00:41:21.664Z,46.25
2023-04-17T00:43:48.766Z,48.50
2023-04-17T00:46:16.670Z,46.25
2023-04-17T00:48:44.482Z,51.25
2023-04-17T00:51:11.982Z,45.00
2023-04-17T00:53:39.614Z,44.25
2023-04-17T00:56:07.307Z,42.00
2023-04-17T00:58:36.285Z,48.25
2023-04-17T01:01:06.122Z,48.00
2023-04-17T01:03:33.581Z,49.25
2023-04-17T01:06:01.759Z,44.00
2023-04-17T01:08:31.083Z,48.00
2023-04-17T01:10:58.405Z,51.00
2023-04-17T01:13:26.222Z,49.75
2023-04-17T01:15:53.670Z,49.75
2023-04-17T01:18:20.930Z,47.00
2023-04-17T01:20:48.230Z,52.50
2023-04-17T01:23:15.812Z,51.75
2023-04-17T01:25:43.070Z,46.50
2023-04-17T01:28:10.290Z,51.00
2023-04-17T01:30:37.739Z,49.50
2023-04-17T01:33:04.838Z,53.50
2023-04-17T01:35:32.112Z,49.75
2023-04-17T01:37:59.138Z,50.75
2023-04-17T01:40:26.267Z,48.50
2023-04-17T01:42:53.498Z,52.00
2023-04-17T01:45:21.550Z,58.00
2023-04-17T01:47:48.645Z,45.00
2023-04-17T01:50:16.002Z,54.00
2023-04-17T01:52:43.043Z,51.50
2023-04-17T01:55:10.554Z,50.00
2023-04-17T01:57:37.628Z,48.75
2023-04-17T02:00:09.535Z,53.25
2023-04-17T02:02:36.675Z,53.25
2023-04-17T02:05:04.332Z,53.75
2023-04-17T02:07:31.418Z,57.25
2023-04-17T02:09:58.630Z,53.00
2023-04-17T02:12:25.772Z,52.00
2023-04-17T02:14:53.169Z,48.00
2023-04-17T02:17:20.050Z,52.75
2023-04-17T02:19:47.708Z,52.00
2023-04-17T02:22:14.769Z,50.50
2023-04-17T02:24:41.994Z,48.25
2023-04-17T02:27:08.990Z,51.75
2023-04-17T02:29:36.545Z,49.00
2023-04-17T02:32:03.678Z,50.50
2023-04-17T02:34:31.144Z,55.75
2023-04-17T02:36:58.221Z,50.25
2023-04-17T02:39:25.559Z,51.00
2023-04-17T02:41:52.834Z,53.25
2023-04-17T02:44:20.276Z,34.00
2023-04-17T02:46:47.373Z,51.50
2023-04-17T02:49:14.724Z,51.75
2023-04-17T02:51:41.995Z,51.75
2023-04-17T02:54:09.337Z,48.75
2023-04-17T02:56:36.363Z,46.00
2023-04-17T02:59:03.896Z,50.00
2023-04-17T03:01:31.061Z,46.25
2023-04-17T03:03:58.852Z,49.00
2023-04-17T03:06:27.605Z,50.75
2023-04-17T03:08:54.928Z,45.50
2023-04-17T03:11:21.973Z,48.50
2023-04-17T03:13:49.650Z,54.25
2023-04-17T03:16:16.725Z,51.50
2023-04-17T03:18:44.138Z,57.25
2023-04-17T03:21:11.159Z,54.50
2023-04-17T03:23:38.611Z,52.50
2023-04-17T03:26:05.715Z,50.50
2023-04-17T03:28:33.270Z,52.25
2023-04-17T03:31:00.152Z,50.00
2023-04-17T03:33:27.454Z,46.50
2023-04-17T03:35:54.457Z,49.75
2023-04-17T03:38:21.650Z,46.50
2023-04-17T03:40:48.574Z,50.75
2023-04-17T03:43:15.950Z,50.00
2023-04-17T03:45:43.036Z,48.00
2023-04-17T03:48:10.625Z,48.25
2023-04-17T03:50:37.763Z,47.75
2023-04-17T03:53:04.989Z,48.75
2023-04-17T03:55:32.322Z,49.00
2023-04-17T03:57:59.737Z,48.25
2023-04-17T04:00:27.577Z,55.50
2023-04-17T04:02:55.378Z,48.50
2023-04-17T04:05:23.357Z,50.00
2023-04-17T04:07:50.613Z,50.25
2023-04-17T04:10:17.736Z,50.25
2023-04-17T04:12:45.183Z,53.00
2023-04-17T04:15:12.177Z,45.25
2023-04-17T04:17:39.510Z,58.50
2023-04-17T04:20:09.135Z,53.00
2023-04-17T04:22:36.846Z,55.00
2023-04-17T04:25:04.146Z,54.00
2023-04-17T04:27:33.070Z,49.50
2023-04-17T04:30:03.702Z,52.00
2023-04-17T04:32:31.104Z,48.50
2023-04-17T04:34:58.633Z,45.00
2023-04-17T04:37:30.730Z,53.25
2023-04-17T04:40:02.612Z,53.75
2023-04-17T04:42:30.414Z,54.00
2023-04-17T04:44:57.341Z,47.75
2023-04-17T04:47:24.633Z,51.75
2023-04-17T04:49:52.192Z,48.50
2023-04-17T04:52:19.777Z,48.75
2023-04-17T04:54:46.804Z,55.00
2023-04-17T04:57:14.290Z,49.50
2023-04-17T04:59:41.354Z,58.00
2023-04-17T05:02:09.172Z,56.50
2023-04-17T05:04:36.726Z,56.00
2023-04-17T05:07:05.646Z,54.00
2023-04-17T05:09:33.385Z,57.00
2023-04-17T05:12:00.907Z,39.00
2023-04-17T05:14:28.135Z,58.00
2023-04-17T05:16:55.932Z,62.25
2023-04-17T05:19:23.063Z,69.50
2023-04-17T05:21:50.623Z,49.25
2023-04-17T05:24:17.730Z,63.50
2023-04-17T05:26:45.077Z,63.25
2023-04-17T05:29:12.337Z,59.50
2023-04-17T05:31:40.548Z,59.75
2023-04-17T05:34:07.774Z,57.00
2023-04-17T05:36:35.078Z,59.00
2023-04-17T05:39:02.354Z,60.50
2023-04-17T05:41:30.879Z,56.25
2023-04-17T05:43:57.941Z,59.00
2023-04-17T05:46:25.469Z,53.25
2023-04-17T05:48:52.918Z,52.75
2023-04-17T05:51:20.349Z,48.75
2023-04-17T05:53:48.833Z,47.50
2023-04-17T05:56:16.255Z,48.25
2023-04-17T05:58:43.331Z,50.25
2023-04-17T06:01:13.073Z,50.25
2023-04-17T06:03:40.303Z,50.75
2023-04-17T06:06:08.014Z,45.50
2023-04-17T06:08:35.210Z,43.25
2023-04-17T06:11:02.711Z,39.75
2023-04-17T06:13:30.072Z,41.25
2023-04-17T06:15:57.680Z,38.75
2023-04-17T06:18:24.987Z,39.50
2023-04-17T06:20:52.369Z,40.50
2023-04-17T06:23:19.607Z,38.00
2023-04-17T06:25:47.165Z,37.00
2023-04-17T06:28:14.309Z,41.25
2023-04-17T06:30:41.726Z,45.00
2023-04-17T06:33:09.045Z,40.75
2023-04-17T06:35:38.104Z,42.75
2023-04-17T06:38:05.005Z,40.75
2023-04-17T06:40:33.134Z,41.25
2023-04-17T06:43:00.378Z,45.00
2023-04-17T06:45:27.848Z,46.75
2023-04-17T06:47:55.037Z,44.50
2023-04-17T06:50:22.771Z,40.25
2023-04-17T06:52:49.875Z,46.00
2023-04-17T06:55:17.452Z,40.00
2023-04-17T06:57:44.689Z,38.33
2023-04-17T07:00:12.844Z,41.00
2023-04-17T07:02:40.075Z,45.00
2023-04-17T07:05:08.047Z,44.33
2023-04-17T07:07:36.129Z,40.67
2023-04-17T07:10:04.712Z,38.67
2023-04-17T07:12:31.819Z,36.33
2023-04-17T07:14:59.089Z,33.00
2023-04-17T07:17:27.499Z,36.00
2023-04-17T07:19:55.439Z,36.33
2023-04-17T07:22:24.022Z,32.00
2023-04-17T07:24:52.826Z,26.67
2023-04-17T07:27:20.100Z,33.33
2023-04-17T07:29:53.006Z,28.67
2023-04-17T07:32:22.136Z,29.00
2023-04-17T07:34:49.650Z,32.33
2023-04-17T07:37:16.740Z,33.67
2023-04-17T07:39:45.324Z,35.67
2023-04-17T07:42:12.383Z,36.00
2023-04-17T07:44:39.694Z,35.33
2023-04-17T07:47:07.182Z,35.33
2023-04-17T07:49:35.284Z,37.33
2023-04-17T07:52:02.262Z,38.00
2023-04-17T07:54:31.511Z,35.00
2023-04-17T07:57:02.915Z,36.00
2023-04-17T07:59:30.871Z,34.00
2023-04-17T08:01:58.276Z,36.33
2023-04-17T08:04:26.213Z,34.67
2023-04-17T08:06:53.546Z,38.67
2023-04-17T08:09:22.621Z,36.67
2023-04-17T08:11:56.878Z,37.33
2023-04-17T08:14:25.326Z,42.00
2023-04-17T08:16:52.736Z,41.33
2023-04-17T08:19:19.981Z,39.00
2023-04-17T08:21:51.156Z,39.00
2023-04-17T08:24:19.979Z,37.00
2023-04-17T08:26:47.879Z,39.33
2023-04-17T08:29:15.961Z,38.67
2023-04-17T08:31:43.152Z,37.67
2023-04-17T08:34:14.788Z,37.67
2023-04-17T08:36:43.500Z,38.33
2023-04-17T08:39:18.242Z,38.00
2023-04-17T08:42:05.550Z,33.00
2023-04-17T08:44:32.791Z,39.00
2023-04-17T08:46:59.857Z,33.00
2023-04-17T08:49:29.338Z,33.00
2023-04-17T08:51:56.409Z,27.33
2023-04-17T08:54:23.799Z,32.67
2023-04-17T08:56:50.820Z,34.33
2023-04-17T08:59:18.067Z,35.00
2023-04-17T09:02:06.088Z,24.00
2023-04-17T09:04:40.105Z,31.25
2023-04-17T09:07:09.690Z,27.00
2023-04-17T09:09:56.632Z,26.25
2023-04-17T09:12:26.125Z,29.67
2023-04-17T09:14:53.550Z,25.75
2023-04-17T09:17:21.287Z,24.50
2023-04-17T09:20:04.722Z,26.75
2023-04-17T09:22:31.899Z,26.25
2023-04-17T09:24:59.698Z,28.50
2023-04-17T09:27:28.299Z,27.75
2023-04-17T09:30:03.462Z,24.50
2023-04-17T09:32:32.179Z,29.50
2023-04-17T09:35:04.533Z,21.75
2023-04-17T09:37:52.394Z,21.00
2023-04-17T09:40:21.107Z,13.00
2023-04-17T09:43:00.226Z,26.75
2023-04-17T09:45:33.541Z,28.75
2023-04-17T09:48:01.108Z,27.75
2023-04-17T09:50:29.284Z,23.75
2023-04-17T09:52:56.479Z,22.25
2023-04-17T09:55:26.797Z,26.50
2023-04-17T09:57:55.739Z,24.25
2023-04-17T10:00:27.832Z,30.00
2023-04-17T10:02:57.249Z,31.00
2023-04-17T10:05:27.312Z,23.25
2023-04-17T10:07:54.306Z,24.25
2023-04-17T10:10:23.446Z,22.00
2023-04-17T10:12:51.345Z,19.25
2023-04-17T10:15:19.708Z,19.25
2023-04-17T10:17:47.681Z,18.75
2023-04-17T10:20:17.963Z,28.75
2023-04-17T10:22:45.358Z,26.25
2023-04-17T10:25:13.112Z,34.00
2023-04-17T10:27:43.071Z,33.25
2023-04-17T10:30:14.923Z,33.00
2023-04-17T10:32:44.975Z,34.33
2023-04-17T10:35:18.309Z,34.33
2023-04-17T10:37:51.112Z,29.00
2023-04-17T10:40:23.843Z,32.00
2023-04-17T10:43:14.646Z,23.00
2023-04-17T10:46:02.122Z,20.33
2023-04-17T10:48:35.124Z,25.33
2023-04-17T10:51:26.548Z,27.00
2023-04-17T10:54:10.347Z,31.67
2023-04-17T10:56:41.960Z,34.67
2023-04-17T10:59:13.705Z,33.67
2023-04-17T11:01:58.463Z,33.00
2023-04-17T11:04:29.197Z,35.67
2023-04-17T11:06:56.618Z,30.00
2023-04-17T11:09:26.780Z,34.67
2023-04-17T11:11:54.723Z,32.00
2023-04-17T11:14:23.213Z,35.00
2023-04-17T11:16:51.985Z,37.67
2023-04-17T11:19:21.628Z,36.33
2023-04-17T11:21:53.819Z,43.67
2023-04-17T11:24:29.113Z,37.00
2023-04-17T11:26:59.979Z,34.00
2023-04-17T11:29:27.577Z,31.67
2023-04-17T11:31:56.539Z,33.00
2023-04-17T11:34:25.619Z,33.33
2023-04-17T11:36:58.310Z,33.33
2023-04-17T11:39:28.789Z,31.33
2023-04-17T11:41:59.263Z,36.00
2023-04-17T11:44:26.473Z,35.33
2023-04-17T11:46:55.193Z,34.33
2023-04-17T11:49:26.561Z,32.67
2023-04-17T11:51:54.505Z,35.67
2023-04-17T11:54:28.436Z,34.67
2023-04-17T11:56:59.463Z,33.33
2023-04-17T11:59:34.503Z,35.33
2023-04-17T12:02:02.929Z,23.67
2023-04-17T12:04:33.789Z,36.33
2023-04-17T12:07:05.716Z,35.67
2023-04-17T12:09:33.913Z,35.67
2023-04-17T12:12:04.856Z,38.67
2023-04-17T12:14:32.175Z,38.00
2023-04-17T12:16:59.910Z,34.67
2023-04-17T12:19:27.546Z,35.67
2023-04-17T12:21:55.832Z,32.67
2023-04-17T12:24:25.219Z,36.00
2023-04-17T12:26:53.394Z,35.67
2023-04-17T12:29:29.476Z,41.33
2023-04-17T12:32:10.536Z,36.00
2023-04-17T12:34:37.965Z,39.00
2023-04-17T12:37:05.708Z,41.00
2023-04-17T12:39:33.459Z,36.00
2023-04-17T12:42:00.784Z,36.67
2023-04-17T12:44:27.676Z,32.33
2023-04-17T12:46:55.209Z,39.67
2023-04-17T12:49:23.864Z,36.67
2023-04-17T12:51:51.678Z,41.67
2023-04-17T12:54:19.173Z,35.00
2023-04-17T12:56:46.480Z,31.33
2023-04-17T12:59:13.677Z,36.33
2023-04-17T13:01:42.684Z,36.00
2023-04-17T13:04:09.903Z,39.00
2023-04-17T13:06:37.349Z,34.67
2023-04-17T13:09:04.985Z,32.33
2023-04-17T13:11:32.538Z,34.33
2023-04-17T13:13:59.461Z,27.33
2023-04-17T13:16:27.160Z,27.67
2023-04-17T13:18:54.300Z,31.00
2023-04-17T13:21:22.050Z,19.00
2023-04-17T13:23:49.133Z,20.67
2023-04-17T13:26:16.440Z,15.33
2023-04-17T13:28:43.376Z,14.33
2023-04-17T13:31:11.126Z,15.00
2023-04-17T13:33:40.369Z,10.33
2023-04-17T13:36:07.925Z,15.67
2023-04-17T13:38:35.078Z,9.67
2023-04-17T13:41:02.545Z,16.00
2023-04-17T13:43:29.592Z,13.00
2023-04-17T13:48:48.533Z,17.67
2023-04-17T13:51:16.158Z,21.33
2023-04-17T13:53:43.076Z,20.00
2023-04-17T13:56:10.342Z,17.67
2023-04-17T13:58:37.763Z,17.67
2023-04-17T14:01:05.235Z,20.33
2023-04-17T14:03:32.630Z,17.67
2023-04-17T14:06:00.200Z,19.33
2023-04-17T14:08:27.237Z,20.33
2023-04-17T14:10:54.516Z,20.67
2023-04-17T14:13:21.717Z,14.33
2023-04-17T14:15:52.523Z,17.33
2023-04-17T14:18:19.732Z,15.00
2023-04-17T14:20:47.675Z,16.00
2023-04-17T14:23:14.667Z,16.00
2023-04-17T14:25:43.020Z,15.67
2023-04-17T14:28:10.368Z,20.33
2023-04-17T14:30:37.887Z,19.00
2023-04-17T14:33:05.135Z,20.00
2023-04-17T14:35:33.790Z,21.00
2023-04-17T14:38:05.154Z,17.33
2023-04-17T14:40:32.936Z,20.00
2023-04-17T14:43:00.432Z,15.67
2023-04-17T14:45:28.039Z,21.67
2023-04-17T14:47:55.231Z,23.67
2023-04-17T14:50:22.929Z,20.67
2023-04-17T14:52:50.108Z,25.00
2023-04-17T14:55:17.496Z,24.33
2023-04-17T14:57:44.824Z,19.67
2023-04-17T15:00:12.630Z,27.33
2023-04-17T15:02:39.907Z,27.00
2023-04-17T15:05:08.809Z,30.00
2023-04-17T15:07:36.104Z,24.33
2023-04-17T15:10:05.287Z,27.00
2023-04-17T15:12:32.617Z,14.00
2023-04-17T15:15:00.216Z,28.67
2023-04-17T15:17:27.322Z,33.67
2023-04-17T15:19:57.588Z,27.67
2023-04-17T15:22:25.641Z,32.00
2023-04-17T15:24:53.021Z,28.67
2023-04-17T15:27:20.281Z,19.00
2023-04-17T15:29:47.534Z,15.33
2023-04-17T15:32:14.657Z,23.33
2023-04-17T15:34:42.213Z,25.00
2023-04-17T15:37:10.526Z,17.00
2023-04-17T15:39:39.132Z,25.00
2023-04-17T15:42:11.489Z,20.67
2023-04-17T15:44:39.104Z,20.00
2023-04-17T15:47:06.981Z,27.33
2023-04-17T15:49:34.512Z,25.67
2023-04-17T15:52:01.577Z,30.00
2023-04-17T15:54:29.076Z,26.67
2023-04-17T15:56:56.928Z,25.33
2023-04-17T15:59:24.486Z,26.00
2023-04-17T16:01:53.392Z,21.00
2023-04-17T16:04:21.124Z,29.67
2023-04-17T16:06:48.095Z,29.00
2023-04-17T16:09:19.749Z,28.67
2023-04-17T16:11:52.010Z,23.67
2023-04-17T16:14:19.248Z,23.67
2023-04-17T16:16:46.563Z,29.00
2023-04-17T16:19:14.294Z,30.33
2023-04-17T16:21:41.632Z,31.33
2023-04-17T16:24:09.515Z,27.75
2023-04-17T16:26:37.057Z,30.00
2023-04-17T16:29:04.427Z,32.50
2023-04-17T16:31:31.570Z,37.75
2023-04-17T16:33:59.213Z,34.75
2023-04-17T16:36:27.523Z,28.00
2023-04-17T16:38:54.865Z,36.75
2023-04-17T16:41:22.563Z,38.75
2023-04-17T16:43:49.927Z,31.33
2023-04-17T16:46:23.788Z,35.50
2023-04-17T16:48:56.340Z,37.25
2023-04-17T16:51:24.169Z,33.75
2023-04-17T16:53:51.761Z,35.50
2023-04-17T16:56:19.268Z,36.00
2023-04-17T16:58:46.886Z,34.00
2023-04-17T17:01:14.068Z,33.00
2023-04-17T17:03:43.368Z,36.25
2023-04-17T17:06:10.767Z,37.75
2023-04-17T17:08:38.628Z,36.75
2023-04-17T17:11:06.096Z,37.50
2023-04-17T17:13:33.529Z,33.50
2023-04-17T17:16:00.630Z,29.75
2023-04-17T17:18:29.661Z,36.25
2023-04-17T17:20:58.855Z,36.25
2023-04-17T17:23:26.910Z,37.50
2023-04-17T17:25:54.509Z,37.00
2023-04-17T17:28:22.143Z,34.50
2023-04-17T17:30:49.702Z,37.75
2023-04-17T17:33:17.368Z,34.75
2023-04-17T17:35:51.841Z,33.00
2023-04-17T17:38:19.885Z,27.50
2023-04-17T17:40:52.688Z,34.50
2023-04-17T17:43:20.378Z,33.00
2023-04-17T17:45:47.668Z,28.75
2023-04-17T17:48:20.664Z,29.50
2023-04-17T17:50:48.152Z,30.00
2023-04-17T17:53:18.480Z,30.00
2023-04-17T17:55:57.272Z,30.00
2023-04-17T17:58:24.814Z,35.50
2023-04-17T18:00:52.004Z,36.75
2023-04-17T18:03:19.612Z,33.75
2023-04-17T18:05:47.276Z,24.75
2023-04-17T18:08:15.126Z,29.50
2023-04-17T18:10:42.324Z,25.25
2023-04-17T18:13:09.751Z,31.50
2023-04-17T18:15:36.808Z,33.50
2023-04-17T18:18:04.476Z,34.00
2023-04-17T18:20:31.889Z,35.75
2023-04-17T18:22:59.225Z,25.25
2023-04-17T18:25:26.272Z,38.00
2023-04-17T18:27:53.713Z,28.00
2023-04-17T18:30:20.963Z,32.00
2023-04-17T18:32:48.429Z,33.00
2023-04-17T18:35:15.891Z,35.75
2023-04-17T18:37:45.041Z,35.50
2023-04-17T18:40:13.123Z,31.25
2023-04-17T18:42:40.802Z,30.75
2023-04-17T18:45:08.432Z,34.75
2023-04-17T18:47:36.562Z,35.00
2023-04-17T18:50:05.735Z,32.25
2023-04-17T18:52:38.085Z,38.25
2023-04-17T18:55:06.220Z,40.00
2023-04-17T18:57:33.535Z,39.00
2023-04-17T19:00:01.208Z,36.25
2023-04-17T19:02:28.920Z,41.00
2023-04-17T19:04:56.436Z,45.00
2023-04-17T19:07:24.285Z,39.75
2023-04-17T19:09:51.481Z,40.75
2023-04-17T19:12:18.934Z,39.50
2023-04-17T19:14:47.239Z,39.25
2023-04-17T19:17:16.094Z,44.00
2023-04-17T19:19:43.090Z,37.50
2023-04-17T19:22:10.889Z,37.00
2023-04-17T19:24:38.389Z,36.25
2023-04-17T19:27:05.760Z,33.75
2023-04-17T19:29:33.549Z,27.00
2023-04-17T19:32:01.137Z,25.50
2023-04-17T19:34:28.233Z,23.50
2023-04-17T19:36:55.848Z,11.25
2023-04-17T19:39:23.575Z,17.00
2023-04-17T19:41:52.098Z,17.00
2023-04-17T19:44:19.671Z,16.67
2023-04-17T19:46:47.136Z,10.00
2023-04-17T19:49:15.753Z,15.33
2023-04-17T19:51:43.329Z,9.33
2023-04-17T19:54:12.224Z,12.33
2023-04-17T19:56:39.635Z,9.67
2023-04-17T19:59:06.917Z,9.67
2023-04-17T20:01:35.543Z,6.00
2023-04-17T20:04:03.163Z,9.00
2023-04-17T20:06:31.012Z,10.00
2023-04-17T20:08:59.440Z,10.25
2023-04-17T20:11:27.017Z,12.00
2023-04-17T20:13:54.731Z,12.00
2023-04-17T20:16:23.991Z,10.33
2023-04-17T20:18:52.146Z,14.75
2023-04-17T20:21:19.601Z,18.00
2023-04-17T20:23:47.857Z,17.00
2023-04-17T20:26:15.686Z,20.00
2023-04-17T20:28:43.002Z,31.50
2023-04-17T20:31:10.542Z,26.00
2023-04-17T20:33:37.767Z,24.50
2023-04-17T20:36:06.084Z,29.75
2023-04-17T20:38:33.301Z,26.25
2023-04-17T20:41:00.509Z,26.75
2023-04-17T20:43:27.955Z,17.75
2023-04-17T20:45:55.670Z,17.25
2023-04-17T20:48:22.683Z,18.25
2023-04-17T20:50:50.471Z,15.75
2023-04-17T20:53:18.259Z,16.25
2023-04-17T20:55:49.754Z,16.50
2023-04-17T20:58:17.039Z,17.25
2023-04-17T21:00:54.349Z,17.50
2023-04-17T21:03:31.692Z,10.67
2023-04-17T21:05:59.686Z,12.00
2023-04-17T21:08:27.024Z,12.33
2023-04-17T21:10:54.435Z,21.25
2023-04-17T21:13:22.257Z,25.00
2023-04-17T21:15:49.639Z,24.50
2023-04-17T21:18:16.555Z,23.50
2023-04-17T21:20:44.042Z,18.25
2023-04-17T21:23:11.108Z,22.25
2023-04-17T21:25:38.564Z,11.75
2023-04-17T21:28:05.772Z,17.00
2023-04-17T21:30:33.227Z,18.75
2023-04-17T21:33:00.601Z,17.75
2023-04-17T21:35:28.137Z,18.25
2023-04-17T21:37:55.221Z,13.00
2023-04-17T21:40:23.087Z,6.75
2023-04-17T21:42:50.096Z,11.75
2023-04-17T21:45:17.450Z,2.75
2023-04-17T21:47:44.499Z,17.25
2023-04-17T21:50:11.862Z,14.50
2023-04-17T21:52:38.900Z,18.00
2023-04-17T21:55:07.905Z,14.25
2023-04-17T21:57:35.432Z,19.75
2023-04-17T22:00:05.388Z,16.25
2023-04-17T22:02:32.398Z,16.50
2023-04-17T22:05:00.012Z,17.25
2023-04-17T22:07:27.050Z,20.50
2023-04-17T22:09:54.401Z,23.00
2023-04-17T22:12:21.578Z,25.00
2023-04-17T22:14:49.099Z,0.00
2023-04-17T22:17:16.351Z,17.00
2023-04-17T22:19:43.728Z,23.75
2023-04-17T22:22:10.711Z,18.25
2023-04-17T22:24:38.138Z,25.25
2023-04-17T22:27:05.444Z,16.25
2023-04-17T22:29:32.814Z,20.75
2023-04-17T22:32:00.074Z,18.25
2023-04-17T22:34:27.506Z,17.50
2023-04-17T22:36:54.470Z,17.00
2023-04-17T22:39:21.831Z,14.25
2023-04-17T22:43:00.586Z,13.00
2023-04-17T22:45:28.025Z,17.00
2023-04-17T22:47:55.436Z,18.75
2023-04-17T22:50:22.710Z,12.75
2023-04-17T22:52:49.844Z,19.00
2023-04-17T22:55:17.365Z,14.00
2023-04-17T22:57:44.771Z,17.00
2023-04-17T23:00:12.940Z,17.25
2023-04-17T23:02:40.367Z,17.75
2023-04-17T23:05:08.886Z,22.00
2023-04-17T23:07:36.263Z,15.50
2023-04-17T23:11:00.019Z,21.25
2023-04-17T23:13:31.610Z,23.00
2023-04-17T23:15:59.052Z,19.00
2023-04-17T23:18:26.073Z,20.25
2023-04-17T23:20:53.418Z,17.50
2023-04-17T23:23:20.770Z,20.00
2023-04-17T23:25:47.988Z,15.75
2023-04-17T23:28:15.329Z,13.75
2023-04-17T23:30:42.691Z,10.00
2023-04-17T23:33:09.912Z,18.25
2023-04-17T23:35:37.253Z,17.25
2023-04-17T23:38:04.348Z,14.50
2023-04-17T23:40:32.863Z,8.00
2023-04-17T23:43:00.456Z,13.75
2023-04-17T23:45:27.783Z,13.25
2023-04-17T23:47:54.707Z,12.00
2023-04-17T23:50:22.264Z,9.50
2023-04-17T23:52:49.629Z,9.75
2023-04-17T23:55:16.903Z,11.25
2023-04-17T23:57:44.205Z,11.50
